Time;durP1;ratioP1;P1;durP2;ratioP2;P2;SDS_P1;SDS_P2;PMS_P1;PMS_P2;Temp;Humidity;BMP_temperature;BMP_pressure;BME280_temperature;BME280_humidity;BME280_pressure;Samples;Min_cycle;Max_cycle;Signal;HPM_P1;HPM_P2
2021/11/21 00:01:27;;;;;;;4.27;2.40;;;7.20;1.00;;;;;;4937674;28;20490;-79
2021/11/21 00:03:55;;;;;;;2.97;2.40;;;7.30;1.00;;;;;;4950222;29;20489;-80
2021/11/21 00:06:23;;;;;;;4.93;3.20;;;7.20;99.90;;;;;;4923355;28;20464;-79
2021/11/21 00:08:52;;;;;;;5.70;3.30;;;7.30;1.00;;;;;;4930044;28;20482;-79
2021/11/21 00:11:21;;;;;;;5.07;2.97;;;7.40;99.90;;;;;;4946893;29;20456;-80
2021/11/21 00:13:50;;;;;;;3.43;3.13;;;7.30;99.90;;;;;;4951440;28;21056;-80
2021/11/21 00:16:19;;;;;;;3.50;2.57;;;7.30;1.00;;;;;;4952874;28;20465;-80
2021/11/21 00:18:49;;;;;;;3.83;3.10;;;7.30;1.00;;;;;;4948451;28;21050;-80
2021/11/21 00:21:18;;;;;;;4.70;4.13;;;7.30;1.00;;;;;;4945671;28;20468;-80
2021/11/21 00:23:47;;;;;;;5.23;2.77;;;7.40;99.90;;;;;;4931608;29;20493;-80
2021/11/21 00:26:15;;;;;;;5.73;3.10;;;7.40;99.90;;;;;;4942460;29;20493;-80
2021/11/21 00:28:44;;;;;;;3.70;2.50;;;7.50;99.90;;;;;;4947355;29;20489;-80
2021/11/21 00:31:12;;;;;;;2.67;2.03;;;7.30;99.90;;;;;;4931704;29;20468;-81
2021/11/21 00:33:40;;;;;;;3.13;2.83;;;7.20;99.90;;;;;;4939185;28;20448;-80
2021/11/21 00:36:10;;;;;;;3.27;2.10;;;7.30;99.90;;;;;;4940189;28;20460;-79
2021/11/21 00:38:39;;;;;;;3.90;3.07;;;7.40;99.90;;;;;;4944778;28;20861;-78
2021/11/21 00:41:07;;;;;;;5.40;3.50;;;7.50;99.90;;;;;;4952490;29;21011;-79
2021/11/21 00:43:36;;;;;;;3.67;3.10;;;7.50;99.90;;;;;;4946058;29;20470;-80
2021/11/21 00:46:04;;;;;;;4.03;3.07;;;7.50;99.90;;;;;;4948348;29;20450;-80
2021/11/21 00:48:36;;;;;;;3.77;2.87;;;7.50;99.90;;;;;;4950847;29;20484;-80
2021/11/21 00:51:04;;;;;;;4.57;2.97;;;7.50;99.90;;;;;;4936971;28;20487;-79
2021/11/21 00:53:36;;;;;;;3.07;2.63;;;7.50;99.90;;;;;;4927170;28;20471;-80
2021/11/21 00:56:04;;;;;;;4.23;3.13;;;7.50;99.90;;;;;;4942793;29;20465;-79
2021/11/21 00:58:34;;;;;;;5.20;2.50;;;7.50;99.90;;;;;;4946435;28;20577;-80
2021/11/21 01:01:05;;;;;;;3.73;2.73;;;7.60;99.90;;;;;;4950268;28;21463;-79
2021/11/21 01:03:36;;;;;;;2.70;2.50;;;7.50;99.90;;;;;;4953735;29;20465;-79
2021/11/21 01:06:05;;;;;;;2.60;2.30;;;7.50;99.90;;;;;;4938708;28;20460;-80
2021/11/21 01:08:35;;;;;;;2.83;2.53;;;7.80;99.90;;;;;;4947208;28;21076;-79
2021/11/21 01:11:06;;;;;;;4.00;2.70;;;7.50;99.90;;;;;;4949087;28;20472;-82
2021/11/21 01:13:37;;;;;;;4.00;2.40;;;7.40;99.90;;;;;;4947229;29;20456;-80
2021/11/21 01:16:05;;;;;;;2.70;2.50;;;7.40;99.90;;;;;;4950680;28;20458;-79
2021/11/21 01:18:36;;;;;;;3.37;1.80;;;7.30;99.90;;;;;;4953351;29;20544;-80
2021/11/21 01:21:05;;;;;;;2.03;1.70;;;7.10;53.10;;;;;;4937701;28;20460;-79
2021/11/21 01:23:35;;;;;;;3.67;2.30;;;7.00;99.90;;;;;;4945905;28;20465;-79
2021/11/21 01:26:03;;;;;;;1.83;1.73;;;7.00;88.30;;;;;;4952853;28;20478;-80
2021/11/21 01:28:31;;;;;;;2.33;2.07;;;7.00;99.90;;;;;;4945667;28;20488;-80
2021/11/21 01:31:00;;;;;;;3.60;1.97;;;7.00;99.90;;;;;;4948165;28;20483;-80
2021/11/21 01:33:29;;;;;;;2.10;1.90;;;7.20;99.90;;;;;;4952985;29;20464;-79
2021/11/21 01:35:58;;;;;;;4.07;2.80;;;7.10;99.90;;;;;;4944813;28;20462;-79
2021/11/21 01:38:26;;;;;;;4.23;2.50;;;7.20;52.80;;;;;;4942760;28;20484;-79
2021/11/21 01:40:56;;;;;;;2.10;1.90;;;7.20;99.90;;;;;;4948668;28;21000;-79
2021/11/21 01:43:24;;;;;;;3.23;1.97;;;7.10;99.90;;;;;;4940897;29;20464;-80
2021/11/21 01:45:53;;;;;;;3.40;2.43;;;7.00;99.90;;;;;;4947841;28;20475;-80
2021/11/21 01:48:21;;;;;;;3.00;2.30;;;7.10;99.90;;;;;;4951682;29;21151;-79
2021/11/21 01:50:49;;;;;;;2.73;2.37;;;7.20;99.90;;;;;;4935869;28;20503;-79
2021/11/21 01:53:18;;;;;;;3.63;2.20;;;7.30;99.90;;;;;;4933857;28;21093;-79
2021/11/21 01:55:47;;;;;;;2.90;2.37;;;7.40;99.90;;;;;;4952598;28;20472;-79
2021/11/21 01:58:17;;;;;;;2.20;2.00;;;7.40;99.90;;;;;;4947838;28;20472;-79
2021/11/21 02:00:47;;;;;;;3.30;2.40;;;7.40;99.90;;;;;;4953258;28;20960;-80
2021/11/21 02:03:17;;;;;;;2.50;2.30;;;7.30;99.90;;;;;;4946889;29;20462;-81
2021/11/21 02:05:46;;;;;;;2.80;2.50;;;7.40;99.90;;;;;;4940038;28;20905;-80
2021/11/21 02:08:15;;;;;;;2.80;2.50;;;7.40;99.90;;;;;;4946727;28;20489;-80
2021/11/21 02:10:43;;;;;;;3.03;2.23;;;7.40;99.90;;;;;;4950464;29;20473;-80
2021/11/21 02:13:12;;;;;;;3.60;2.60;;;7.40;99.90;;;;;;4949857;29;21035;-79
2021/11/21 02:15:44;;;;;;;3.73;2.87;;;7.40;99.90;;;;;;4949779;28;20448;-80
2021/11/21 02:18:14;;;;;;;3.07;2.33;;;7.40;99.90;;;;;;4951154;28;21009;-79
2021/11/21 02:20:51;;;;;;;3.23;2.90;;;7.50;99.90;;;;;;4944077;28;20976;-79
2021/11/21 02:23:22;;;;;;;3.00;2.57;;;7.50;92.00;;;;;;4944741;28;20555;-79
2021/11/21 02:25:50;;;;;;;5.20;3.30;;;7.40;82.00;;;;;;4950720;28;20458;-80
2021/11/21 02:28:19;;;;;;;1.80;1.70;;;7.40;54.50;;;;;;4950478;28;20998;-80
2021/11/21 02:30:47;;;;;;;2.40;1.90;;;7.40;1.00;;;;;;4924335;29;21023;-81
2021/11/21 02:33:18;;;;;;;3.07;2.07;;;7.40;23.40;;;;;;4935805;29;20467;-79
2021/11/21 02:35:52;;;;;;;2.40;1.80;;;7.30;21.30;;;;;;4938738;28;20484;-79
2021/11/21 02:38:22;;;;;;;3.53;2.40;;;7.40;6.70;;;;;;4934436;29;20485;-80
2021/11/21 02:40:51;;;;;;;3.97;2.10;;;7.30;19.20;;;;;;4946030;28;20456;-80
2021/11/21 02:43:21;;;;;;;3.93;2.40;;;7.20;99.90;;;;;;4945130;28;20459;-80
2021/11/21 02:45:51;;;;;;;2.40;2.20;;;7.20;92.70;;;;;;4946555;28;20504;-80
2021/11/21 02:48:21;;;;;;;1.60;1.50;;;7.20;35.00;;;;;;4951827;28;21205;-79
2021/11/21 02:50:52;;;;;;;3.40;2.53;;;7.20;25.90;;;;;;4938855;28;20491;-80
2021/11/21 02:53:25;;;;;;;2.63;1.73;;;7.10;72.80;;;;;;4931911;28;20468;-80
2021/11/21 02:55:56;;;;;;;3.70;2.30;;;7.20;3.80;;;;;;4948740;28;20464;-79
2021/11/21 02:58:24;;;;;;;1.83;1.60;;;7.10;55.30;;;;;;4949436;28;20535;-80
2021/11/21 03:00:54;;;;;;;2.30;2.10;;;7.10;99.90;;;;;;4947304;28;20822;-80
2021/11/21 03:03:23;;;;;;;2.53;2.30;;;7.10;99.90;;;;;;4950579;29;20835;-80
2021/11/21 03:05:52;;;;;;;2.30;1.70;;;7.00;99.90;;;;;;4938126;28;20482;-80
2021/11/21 03:08:21;;;;;;;3.53;2.27;;;7.00;99.90;;;;;;4945335;28;20495;-79
2021/11/21 03:10:49;;;;;;;2.70;2.20;;;7.00;99.90;;;;;;4927934;29;20487;-80
2021/11/21 03:13:17;;;;;;;2.97;2.00;;;7.10;99.90;;;;;;4939329;28;20465;-80
2021/11/21 03:15:46;;;;;;;2.90;1.67;;;7.10;78.40;;;;;;4937286;28;20455;-80
2021/11/21 03:18:14;;;;;;;1.60;1.50;;;7.10;28.40;;;;;;4945517;29;20625;-80
2021/11/21 03:20:42;;;;;;;1.87;1.53;;;7.00;1.00;;;;;;4940083;28;20464;-80
2021/11/21 03:23:12;;;;;;;2.07;1.80;;;7.00;29.70;;;;;;4948039;28;20689;-79
2021/11/21 03:25:41;;;;;;;2.00;1.90;;;6.90;42.20;;;;;;4947613;28;20516;-79
2021/11/21 03:28:09;;;;;;;2.10;1.93;;;6.90;53.30;;;;;;4947870;28;20478;-81
2021/11/21 03:30:37;;;;;;;2.57;1.80;;;7.00;4.70;;;;;;4953118;28;20487;-81
2021/11/21 03:33:05;;;;;;;1.90;1.80;;;7.10;1.00;;;;;;4952879;28;20461;-81
2021/11/21 03:35:34;;;;;;;2.60;1.70;;;7.00;53.30;;;;;;4934405;28;21237;-80
2021/11/21 03:38:03;;;;;;;2.13;1.80;;;6.90;99.90;;;;;;4940115;28;20480;-80
2021/11/21 03:40:33;;;;;;;2.63;2.23;;;6.80;99.90;;;;;;4952334;29;20998;-80
2021/11/21 03:43:02;;;;;;;4.07;2.43;;;6.80;99.90;;;;;;4950583;29;20831;-80
2021/11/21 03:45:31;;;;;;;2.10;1.90;;;6.80;99.90;;;;;;4946802;29;20712;-80
2021/11/21 03:48:00;;;;;;;1.80;1.70;;;6.80;99.90;;;;;;4945213;29;20511;-80
2021/11/21 03:50:28;;;;;;;4.33;2.17;;;6.70;99.90;;;;;;4928552;28;21039;-79
2021/11/21 03:52:57;;;;;;;2.40;1.77;;;6.80;99.90;;;;;;4947276;28;20622;-80
2021/11/21 03:55:25;;;;;;;2.33;2.07;;;6.90;99.90;;;;;;4951968;28;20451;-80
2021/11/21 03:57:55;;;;;;;2.30;1.80;;;6.90;99.90;;;;;;4951366;29;20476;-80
2021/11/21 04:00:24;;;;;;;2.80;2.13;;;6.90;99.90;;;;;;4953984;28;20541;-80
2021/11/21 04:02:55;;;;;;;2.70;1.80;;;6.90;52.10;;;;;;4941194;29;20448;-80
2021/11/21 04:05:24;;;;;;;2.57;2.23;;;6.90;99.90;;;;;;4952539;28;20463;-80
2021/11/21 04:07:53;;;;;;;1.80;1.70;;;6.80;99.90;;;;;;4946743;28;20476;-80
2021/11/21 04:10:21;;;;;;;2.40;1.73;;;6.70;99.90;;;;;;4951361;28;20488;-80
2021/11/21 04:12:49;;;;;;;1.47;1.37;;;6.30;99.90;;;;;;4947476;29;21216;-80
2021/11/21 04:15:19;;;;;;;2.13;1.50;;;6.60;99.90;;;;;;4947270;28;20469;-79
2021/11/21 04:17:47;;;;;;;2.73;1.87;;;6.50;99.90;;;;;;4950768;28;20537;-80
2021/11/21 04:20:15;;;;;;;1.93;1.73;;;6.40;99.90;;;;;;4947320;29;20965;-80
2021/11/21 04:22:43;;;;;;;3.20;1.67;;;6.70;99.90;;;;;;4951688;28;20470;-80
2021/11/21 04:25:12;;;;;;;2.10;1.73;;;6.80;99.90;;;;;;4943655;28;20460;-80
2021/11/21 04:27:41;;;;;;;2.80;1.80;;;6.80;99.90;;;;;;4946697;29;20480;-80
2021/11/21 04:30:13;;;;;;;1.83;1.70;;;6.70;99.90;;;;;;4941366;28;20446;-80
2021/11/21 04:32:43;;;;;;;1.83;1.70;;;6.50;99.90;;;;;;4929166;28;21561;-79
2021/11/21 04:35:13;;;;;;;1.97;1.70;;;6.40;99.90;;;;;;4920010;28;20542;-79
2021/11/21 04:37:41;;;;;;;3.77;2.23;;;6.50;99.90;;;;;;4951507;29;20476;-80
2021/11/21 04:40:12;;;;;;;1.67;1.57;;;6.60;99.90;;;;;;4946931;29;20952;-79
2021/11/21 04:42:41;;;;;;;2.97;2.53;;;6.70;99.90;;;;;;4943311;28;20967;-79
2021/11/21 04:45:10;;;;;;;3.03;1.90;;;6.60;92.90;;;;;;4933487;29;20464;-80
2021/11/21 04:47:39;;;;;;;1.67;1.57;;;6.80;25.80;;;;;;4950184;29;20495;-79
2021/11/21 04:50:11;;;;;;;2.67;1.97;;;6.70;1.00;;;;;;4924263;29;20841;-80
2021/11/21 04:52:40;;;;;;;1.60;1.33;;;6.70;1.00;;;;;;4950464;29;20878;-81
2021/11/21 04:55:09;;;;;;;2.20;1.70;;;6.70;1.00;;;;;;4949833;29;20459;-80
2021/11/21 04:57:40;;;;;;;2.40;1.93;;;6.80;1.00;;;;;;4950213;29;20526;-80
2021/11/21 05:00:15;;;;;;;1.60;1.50;;;6.80;1.00;;;;;;4948188;28;20513;-80
2021/11/21 05:02:43;;;;;;;1.60;1.50;;;6.70;1.00;;;;;;4952912;29;20481;-80
2021/11/21 05:05:13;;;;;;;2.20;2.00;;;6.50;1.00;;;;;;4934048;28;20956;-81
2021/11/21 05:07:42;;;;;;;1.47;1.33;;;6.40;35.40;;;;;;4949123;29;20468;-80
2021/11/21 05:10:11;;;;;;;2.73;1.70;;;6.50;22.70;;;;;;4940232;28;20446;-80
2021/11/21 05:12:40;;;;;;;1.97;1.80;;;6.40;30.00;;;;;;4952245;28;20485;-81
2021/11/21 05:15:11;;;;;;;1.50;1.40;;;6.40;1.00;;;;;;4941684;28;20495;-82
2021/11/21 05:17:39;;;;;;;1.80;1.40;;;6.10;9.80;;;;;;4955163;28;20479;-81
2021/11/21 05:20:08;;;;;;;2.03;1.87;;;6.20;3.80;;;;;;4940974;28;20461;-81
2021/11/21 05:22:39;;;;;;;1.40;1.30;;;6.30;1.00;;;;;;4941581;29;20460;-82
2021/11/21 05:25:08;;;;;;;2.20;1.50;;;6.40;1.00;;;;;;4946467;29;20467;-81
2021/11/21 05:27:36;;;;;;;1.33;1.23;;;6.50;1.00;;;;;;4939248;29;20564;-81
2021/11/21 05:30:05;;;;;;;1.67;1.27;;;6.40;1.00;;;;;;4937199;29;20461;-81
2021/11/21 05:32:34;;;;;;;1.60;1.50;;;6.30;1.00;;;;;;4940247;29;20516;-80
2021/11/21 05:35:02;;;;;;;2.63;1.73;;;6.20;99.90;;;;;;4937733;29;20464;-81
2021/11/21 05:37:30;;;;;;;2.43;1.50;;;6.40;99.90;;;;;;4945120;29;20863;-81
2021/11/21 05:40:00;;;;;;;1.73;1.63;;;6.40;59.00;;;;;;4944442;28;20833;-81
2021/11/21 05:42:29;;;;;;;1.43;1.30;;;6.50;1.00;;;;;;4938285;29;20969;-80
2021/11/21 05:44:57;;;;;;;1.67;1.40;;;6.40;1.00;;;;;;4932475;29;20523;-81
2021/11/21 05:47:26;;;;;;;1.42;1.33;;;6.50;1.00;;;;;;4932873;29;20541;-82
2021/11/21 05:49:54;;;;;;;3.00;1.40;;;6.70;1.00;;;;;;4940715;28;20208;-81
2021/11/21 05:52:23;;;;;;;2.40;1.80;;;6.60;1.00;;;;;;4943560;28;21082;-80
2021/11/21 05:54:51;;;;;;;1.50;1.40;;;6.50;1.00;;;;;;4950709;29;20222;-80
2021/11/21 05:57:21;;;;;;;1.50;1.30;;;6.50;1.00;;;;;;4949092;29;20483;-81
2021/11/21 05:59:49;;;;;;;1.70;1.60;;;6.60;1.00;;;;;;4953151;29;20456;-81
2021/11/21 06:02:17;;;;;;;2.17;1.40;;;6.60;1.00;;;;;;4942671;28;20496;-80
2021/11/21 06:04:46;;;;;;;1.27;1.17;;;6.60;1.00;;;;;;4939824;28;20212;-80
2021/11/21 06:07:14;;;;;;;2.40;1.97;;;6.80;1.00;;;;;;4937178;28;20539;-80
2021/11/21 06:09:42;;;;;;;1.50;1.40;;;6.40;1.00;;;;;;4944699;29;20547;-81
2021/11/21 06:12:11;;;;;;;1.73;1.63;;;6.80;1.00;;;;;;4947423;28;20487;-80
2021/11/21 06:14:40;;;;;;;1.50;1.40;;;6.40;1.00;;;;;;4943386;28;20467;-81
2021/11/21 06:17:09;;;;;;;1.50;1.40;;;6.40;1.00;;;;;;4940303;29;20480;-83
2021/11/21 06:19:38;;;;;;;1.97;1.40;;;6.50;1.00;;;;;;4930522;28;20598;-79
2021/11/21 06:22:06;;;;;;;1.83;1.50;;;6.40;1.00;;;;;;4931980;28;20457;-80
2021/11/21 06:24:35;;;;;;;2.13;1.92;;;6.50;1.00;;;;;;4945200;28;20459;-80
2021/11/21 06:27:04;;;;;;;1.57;1.43;;;6.50;1.00;;;;;;4936622;29;20799;-80
2021/11/21 06:29:32;;;;;;;1.90;1.40;;;6.50;1.00;;;;;;4944797;29;20468;-80
2021/11/21 06:32:01;;;;;;;2.27;1.50;;;6.40;1.00;;;;;;4940809;28;20558;-79
2021/11/21 06:34:30;;;;;;;1.70;1.60;;;6.40;82.80;;;;;;4936163;28;20468;-79
2021/11/21 06:36:59;;;;;;;2.00;1.80;;;6.50;27.90;;;;;;4939955;29;20477;-79
2021/11/21 06:39:27;;;;;;;3.27;1.73;;;6.40;21.60;;;;;;4942727;29;21034;-79
2021/11/21 06:41:55;;;;;;;1.73;1.60;;;6.50;68.30;;;;;;4934888;29;20460;-80
2021/11/21 06:44:23;;;;;;;2.00;1.60;;;6.50;59.40;;;;;;4940024;29;20763;-79
2021/11/21 06:46:52;;;;;;;2.53;1.40;;;6.60;8.20;;;;;;4948274;28;21038;-79
2021/11/21 06:49:22;;;;;;;1.63;1.50;;;6.60;1.00;;;;;;4944494;28;20475;-80
2021/11/21 06:51:50;;;;;;;1.83;1.50;;;6.60;1.00;;;;;;4942845;29;20463;-80
2021/11/21 06:54:19;;;;;;;1.60;1.50;;;6.60;1.00;;;;;;4952704;29;20523;-80
2021/11/21 06:56:47;;;;;;;3.90;2.13;;;6.50;12.00;;;;;;4950065;28;20448;-80
2021/11/21 06:59:15;;;;;;;1.60;1.50;;;6.60;39.40;;;;;;4954159;28;20459;-80
2021/11/21 07:01:43;;;;;;;2.37;1.60;;;6.60;53.00;;;;;;4926224;29;20520;-80
2021/11/21 07:04:12;;;;;;;1.90;1.40;;;6.60;24.00;;;;;;4954969;29;20882;-80
2021/11/21 07:06:47;;;;;;;1.97;1.50;;;6.70;29.10;;;;;;4954263;29;20850;-81
2021/11/21 07:09:17;;;;;;;2.20;1.80;;;6.70;19.50;;;;;;4951350;29;20477;-79
2021/11/21 07:11:47;;;;;;;2.70;2.10;;;6.70;24.50;;;;;;4949836;29;20468;-80
2021/11/21 07:14:15;;;;;;;1.83;1.70;;;6.80;4.20;;;;;;4953738;28;20534;-84
2021/11/21 07:16:46;;;;;;;1.70;1.10;;;6.70;99.90;;;;;;4938654;28;20552;-83
2021/11/21 07:19:14;;;;;;;1.47;1.10;;;6.60;99.90;;;;;;4948553;29;20452;-83
2021/11/21 07:21:44;;;;;;;3.83;1.77;;;6.50;99.90;;;;;;4941895;28;20852;-83
2021/11/21 07:24:13;;;;;;;1.70;1.37;;;6.50;99.90;;;;;;4940282;29;20460;-83
2021/11/21 07:26:41;;;;;;;1.90;1.48;;;6.40;1.00;;;;;;4946410;28;20964;-84
2021/11/21 07:29:30;;;;;;;1.90;1.80;;;6.50;99.90;;;;;;4930101;29;20221;-84
2021/11/21 07:32:18;;;;;;;2.43;1.90;;;6.60;99.90;;;;;;4926808;28;20464;-84
2021/11/21 07:35:07;;;;;;;3.33;1.80;;;6.60;99.90;;;;;;4945019;29;20438;-83
2021/11/21 07:37:57;;;;;;;2.27;1.60;;;6.60;99.90;;;;;;4952200;29;21045;-83
2021/11/21 07:40:46;;;;;;;3.33;1.90;;;6.60;1.00;;;;;;4944968;29;20445;-82
2021/11/21 07:43:35;;;;;;;4.67;2.17;;;6.70;99.90;;;;;;4946981;29;21216;-83
2021/11/21 07:46:25;;;;;;;4.10;2.03;;;6.70;99.90;;;;;;4942621;29;20453;-82
2021/11/21 07:49:14;;;;;;;2.27;1.67;;;6.80;99.90;;;;;;4948129;29;20934;-83
2021/11/21 07:52:02;;;;;;;4.10;2.27;;;6.70;99.90;;;;;;4951034;28;20987;-81
2021/11/21 07:54:53;;;;;;;3.40;1.77;;;6.60;1.00;;;;;;4947627;29;20932;-83
2021/11/21 07:57:42;;;;;;;2.10;1.63;;;6.70;99.90;;;;;;4955381;28;20481;-84
2021/11/21 08:00:31;;;;;;;2.70;1.30;;;6.80;99.90;;;;;;4941944;28;20464;-83
2021/11/21 08:03:20;;;;;;;2.30;1.93;;;6.90;99.90;;;;;;4951924;28;20503;-84
2021/11/21 08:06:09;;;;;;;2.00;1.80;;;7.00;99.90;;;;;;4951113;29;20463;-84
2021/11/21 08:08:57;;;;;;;3.17;2.17;;;6.90;99.90;;;;;;4952281;29;20484;-83
2021/11/21 08:11:47;;;;;;;3.27;1.80;;;7.00;99.90;;;;;;4949216;29;20841;-85
2021/11/21 08:14:38;;;;;;;4.43;2.00;;;7.00;99.90;;;;;;4950342;28;20837;-86
2021/11/21 08:17:27;;;;;;;3.47;2.50;;;7.00;99.90;;;;;;4943595;28;20483;-87
2021/11/21 08:20:15;;;;;;;5.47;1.90;;;7.00;99.90;;;;;;4943132;28;20549;-86
2021/11/21 08:23:04;;;;;;;2.43;1.70;;;7.10;99.90;;;;;;4946935;29;20990;-86
2021/11/21 08:25:52;;;;;;;4.80;2.70;;;7.10;99.90;;;;;;4948259;29;20435;-85
2021/11/21 08:28:42;;;;;;;5.43;2.37;;;7.10;99.90;;;;;;4946306;28;20230;-86
2021/11/21 08:31:34;;;;;;;3.60;1.80;;;7.20;99.90;;;;;;4945323;28;20446;-86
2021/11/21 08:34:23;;;;;;;4.67;2.63;;;7.20;99.90;;;;;;4946946;29;20794;-86
2021/11/21 08:37:12;;;;;;;3.70;2.60;;;7.20;99.90;;;;;;4949576;28;20839;-86
2021/11/21 08:40:00;;;;;;;2.90;1.90;;;7.10;1.00;;;;;;4947405;29;20466;-87
2021/11/21 08:42:49;;;;;;;3.47;2.80;;;7.00;1.00;;;;;;4939760;28;20449;-84
2021/11/21 08:45:39;;;;;;;6.47;5.13;;;7.10;1.00;;;;;;4938041;28;20459;-85
2021/11/21 08:48:28;;;;;;;4.50;2.67;;;7.20;1.00;;;;;;4947698;29;20464;-87
2021/11/21 08:51:16;;;;;;;6.80;3.20;;;7.20;1.00;;;;;;4939899;28;20448;-85
2021/11/21 08:54:05;;;;;;;5.27;3.10;;;7.30;1.00;;;;;;4942001;29;20472;-86
2021/11/21 08:56:54;;;;;;;8.30;3.43;;;7.20;1.00;;;;;;4940747;28;20465;-86
2021/11/21 08:59:42;;;;;;;9.60;3.87;;;7.20;20.30;;;;;;4940000;28;20459;-86
2021/11/21 09:02:33;;;;;;;8.20;4.40;;;7.30;1.00;;;;;;4947710;29;20456;-85
2021/11/21 09:05:23;;;;;;;11.40;5.03;;;7.30;1.00;;;;;;4939800;28;20552;-86
2021/11/21 09:08:31;;;;;;;6.40;4.20;;;7.30;1.00;;;;;;4950720;28;20500;-85
2021/11/21 09:11:20;;;;;;;8.47;4.93;;;7.40;1.00;;;;;;4943960;29;20438;-86
2021/11/21 09:14:09;;;;;;;6.73;4.00;;;7.40;99.90;;;;;;4940260;29;20497;-85
2021/11/21 09:16:58;;;;;;;23.70;10.03;;;7.40;99.90;;;;;;4947713;28;20460;-86
2021/11/21 09:19:48;;;;;;;12.53;7.20;;;7.40;99.90;;;;;;4946108;29;20460;-85
2021/11/21 09:22:37;;;;;;;9.63;5.10;;;7.40;99.90;;;;;;4937019;28;20456;-86
2021/11/21 09:25:25;;;;;;;8.37;4.00;;;7.30;99.90;;;;;;4948070;28;20449;-86
2021/11/21 09:28:14;;;;;;;10.20;4.90;;;7.30;99.90;;;;;;4938302;28;21086;-86
2021/11/21 09:31:03;;;;;;;10.20;4.80;;;7.30;99.90;;;;;;4939922;29;20943;-85
2021/11/21 09:33:52;;;;;;;9.73;3.83;;;7.40;99.90;;;;;;4935985;29;20474;-86
2021/11/21 09:36:44;;;;;;;6.77;4.50;;;7.30;99.90;;;;;;4939814;28;20445;-85
2021/11/21 09:39:33;;;;;;;5.63;4.40;;;7.30;99.90;;;;;;4945512;28;20461;-86
2021/11/21 09:42:22;;;;;;;9.83;5.53;;;7.40;99.90;;;;;;4952591;29;20452;-84
2021/11/21 09:45:13;;;;;;;7.93;5.10;;;7.40;99.90;;;;;;4943906;29;20458;-85
2021/11/21 09:48:04;;;;;;;6.90;4.20;;;7.40;99.90;;;;;;4951988;29;20783;-84
2021/11/21 09:50:53;;;;;;;8.70;3.90;;;7.40;99.90;;;;;;4945371;28;20448;-84
2021/11/21 09:53:45;;;;;;;10.23;5.20;;;7.40;99.90;;;;;;4948966;28;20492;-84
2021/11/21 09:56:33;;;;;;;6.63;3.30;;;7.40;99.90;;;;;;4944673;29;20458;-85
2021/11/21 09:59:51;;;;;;;8.30;4.13;;;7.40;99.90;;;;;;4936028;28;20498;-82
2021/11/21 10:02:42;;;;;;;6.87;4.93;;;7.30;99.90;;;;;;4949212;29;20444;-82
2021/11/21 10:05:33;;;;;;;5.73;4.10;;;7.30;99.90;;;;;;4939220;29;20785;-82
2021/11/21 10:08:24;;;;;;;8.20;5.20;;;7.40;99.90;;;;;;4933992;29;20481;-87
2021/11/21 10:11:15;;;;;;;12.90;5.20;;;7.40;99.90;;;;;;4944414;29;20461;-85
2021/11/21 10:14:06;;;;;;;8.00;4.50;;;7.40;99.90;;;;;;4943826;28;20491;-84
2021/11/21 10:16:54;;;;;;;7.90;4.17;;;7.50;99.90;;;;;;4945259;28;20472;-84
2021/11/21 10:20:06;;;;;;;10.60;4.80;;;7.50;99.90;;;;;;4953795;28;20445;-80
2021/11/21 10:23:01;;;;;;;6.70;5.07;;;7.40;99.90;;;;;;4949360;28;20433;-85
2021/11/21 10:25:55;;;;;;;8.93;4.40;;;7.50;99.90;;;;;;4962311;28;20453;-84
2021/11/21 10:28:45;;;;;;;9.83;4.33;;;7.50;99.90;;;;;;4957428;28;20464;-84
2021/11/21 10:31:34;;;;;;;8.27;3.77;;;7.50;99.90;;;;;;4956514;28;20433;-84
2021/11/21 10:34:23;;;;;;;10.17;4.47;;;7.60;99.90;;;;;;4954161;29;20453;-85
2021/11/21 10:37:11;;;;;;;6.57;4.37;;;7.60;99.90;;;;;;4951992;28;20464;-76
2021/11/21 10:40:20;;;;;;;7.53;4.10;;;7.60;99.90;;;;;;4957535;28;20536;-85
2021/11/21 10:43:09;;;;;;;6.03;3.70;;;7.60;99.90;;;;;;4952748;28;20967;-80
2021/11/21 10:45:59;;;;;;;7.83;3.67;;;7.70;99.90;;;;;;4950388;28;20452;-83
2021/11/21 10:48:48;;;;;;;8.77;4.47;;;7.60;99.90;;;;;;4957091;28;20555;-81
2021/11/21 10:51:36;;;;;;;9.50;4.70;;;7.60;99.90;;;;;;4959678;28;20432;-86
2021/11/21 10:54:29;;;;;;;7.20;3.63;;;7.60;99.90;;;;;;4958413;28;20463;-85
2021/11/21 10:57:20;;;;;;;7.87;4.13;;;7.70;98.30;;;;;;4953309;28;20490;-84
2021/11/21 11:00:15;;;;;;;7.80;4.00;;;7.60;87.40;;;;;;4954706;28;20463;-86
2021/11/21 11:03:15;;;;;;;6.33;3.53;;;7.60;99.90;;;;;;4949967;28;20963;-86
2021/11/21 11:06:27;;;;;;;8.20;4.50;;;7.60;99.90;;;;;;4943366;28;20458;-85
2021/11/21 11:09:26;;;;;;;7.33;4.20;;;7.60;99.90;;;;;;4947600;28;20428;-84
2021/11/21 11:12:14;;;;;;;3.80;3.00;;;7.70;99.00;;;;;;4940373;28;21013;-84
2021/11/21 11:15:03;;;;;;;5.03;3.63;;;7.50;19.80;;;;;;4937700;29;20847;-86
2021/11/21 11:17:52;;;;;;;6.40;3.63;;;7.70;99.90;;;;;;4933626;29;20503;-85
2021/11/21 11:20:47;;;;;;;7.50;4.10;;;7.70;30.90;;;;;;4933973;29;20445;-83
2021/11/21 11:23:37;;;;;;;4.17;3.10;;;7.70;1.00;;;;;;4940041;28;20442;-84
2021/11/21 11:26:26;;;;;;;6.33;3.70;;;8.00;56.40;;;;;;4936716;29;20488;-85
2021/11/21 11:29:21;;;;;;;6.07;4.20;;;7.80;40.70;;;;;;4942381;29;20463;-86
2021/11/21 11:32:30;;;;;;;5.17;3.20;;;7.70;92.50;;;;;;4948411;28;20949;-84
2021/11/21 11:35:29;;;;;;;6.73;3.40;;;7.70;35.90;;;;;;4945683;29;20496;-84
2021/11/21 11:38:21;;;;;;;5.60;3.70;;;7.70;99.90;;;;;;4946795;29;20468;-86
2021/11/21 11:41:11;;;;;;;6.90;3.80;;;7.80;1.00;;;;;;4944836;28;20453;-84
2021/11/21 11:44:02;;;;;;;6.53;3.10;;;7.80;10.80;;;;;;4941943;29;20460;-86
2021/11/21 11:46:50;;;;;;;9.00;3.70;;;7.90;1.00;;;;;;4945160;29;20471;-85
2021/11/21 11:49:40;;;;;;;6.07;3.10;;;7.90;1.00;;;;;;4945747;29;21003;-85
2021/11/21 11:52:54;;;;;;;3.73;2.80;;;7.80;1.00;;;;;;4949711;29;20441;-84
2021/11/21 11:56:10;;;;;;;4.40;3.40;;;7.80;1.00;;;;;;4945658;29;20472;-84
2021/11/21 11:59:01;;;;;;;6.50;3.80;;;8.10;1.00;;;;;;4941598;28;20963;-85
2021/11/21 12:02:05;;;;;;;7.33;3.13;;;7.90;1.00;;;;;;4949242;28;20450;-85
2021/11/21 12:04:57;;;;;;;4.80;3.30;;;7.90;1.00;;;;;;4943723;29;20531;-84
2021/11/21 12:07:45;;;;;;;6.60;3.07;;;7.90;1.00;;;;;;4940497;29;20494;-83
2021/11/21 12:10:46;;;;;;;5.43;2.93;;;7.90;1.00;;;;;;4949046;28;20464;-82
2021/11/21 12:13:36;;;;;;;4.93;3.20;;;7.90;1.00;;;;;;4951532;29;20433;-82
2021/11/21 12:16:25;;;;;;;7.90;3.80;;;8.00;1.00;;;;;;4949908;29;20480;-81
2021/11/21 12:19:13;;;;;;;6.60;3.40;;;8.00;1.00;;;;;;4949211;29;20468;-85
2021/11/21 12:22:02;;;;;;;9.73;4.50;;;8.00;1.00;;;;;;4948741;29;20440;-87
2021/11/21 12:24:52;;;;;;;6.10;3.43;;;8.00;1.00;;;;;;4951283;28;20529;-87
2021/11/21 12:27:53;;;;;;;5.03;3.40;;;8.00;1.00;;;;;;4954078;29;20476;-87
2021/11/21 12:30:42;;;;;;;7.30;3.50;;;8.00;1.00;;;;;;4951436;28;20453;-87
2021/11/21 12:33:34;;;;;;;5.53;4.30;;;8.00;1.00;;;;;;4954670;29;20487;-86
2021/11/21 12:36:23;;;;;;;4.53;2.77;;;8.00;1.00;;;;;;4942194;29;20461;-84
2021/11/21 12:39:31;;;;;;;3.60;3.00;;;8.00;1.00;;;;;;4951742;29;20889;-84
2021/11/21 12:42:25;;;;;;;4.70;2.50;;;8.00;1.00;;;;;;4961816;28;20448;-86
2021/11/21 12:45:18;;;;;;;6.33;3.10;;;8.00;1.00;;;;;;4948313;29;20452;-85
2021/11/21 12:48:09;;;;;;;4.87;3.50;;;8.00;1.00;;;;;;4954029;29;20456;-85
2021/11/21 12:50:59;;;;;;;6.40;4.37;;;8.00;1.00;;;;;;4953582;29;20464;-84
2021/11/21 12:53:50;;;;;;;6.33;3.10;;;8.00;1.00;;;;;;4953723;28;20454;-86
2021/11/21 12:56:39;;;;;;;7.40;3.60;;;8.00;1.00;;;;;;4950619;29;20469;-87
2021/11/21 12:59:54;;;;;;;9.50;4.30;;;7.90;1.00;;;;;;4948491;29;20449;-85
2021/11/21 13:02:56;;;;;;;5.30;2.57;;;7.90;21.70;;;;;;4947962;28;21020;-85
2021/11/21 13:05:50;;;;;;;5.93;3.17;;;7.80;52.70;;;;;;4942601;29;20998;-85
2021/11/21 13:08:39;;;;;;;9.17;3.83;;;7.80;15.60;;;;;;4945832;29;20568;-85
2021/11/21 13:11:28;;;;;;;10.77;4.27;;;7.90;1.00;;;;;;4953077;28;20851;-85
2021/11/21 13:14:16;;;;;;;6.77;3.60;;;7.90;1.00;;;;;;4951499;29;20452;-85
2021/11/21 13:17:15;;;;;;;3.30;2.63;;;7.90;1.00;;;;;;4948083;29;20468;-84
2021/11/21 13:20:15;;;;;;;8.07;4.27;;;7.90;1.00;;;;;;4951511;28;20817;-85
2021/11/21 13:23:06;;;;;;;5.40;2.60;;;7.90;1.00;;;;;;4935332;28;20450;-85
2021/11/21 13:25:58;;;;;;;8.27;3.17;;;8.00;1.00;;;;;;4940289;29;20452;-84
2021/11/21 13:28:49;;;;;;;6.80;3.23;;;7.90;1.00;;;;;;4951335;29;20487;-86
2021/11/21 13:31:39;;;;;;;4.60;3.27;;;7.90;1.00;;;;;;4934474;29;20992;-83
2021/11/21 13:34:28;;;;;;;7.80;3.33;;;7.90;1.00;;;;;;4932997;29;20888;-85
2021/11/21 13:37:18;;;;;;;3.63;2.50;;;8.00;1.00;;;;;;4936850;29;20488;-86
2021/11/21 13:40:07;;;;;;;4.83;2.90;;;8.00;1.00;;;;;;4948708;29;20476;-85
2021/11/21 13:43:03;;;;;;;5.00;3.17;;;8.00;1.00;;;;;;4951448;28;20448;-84
2021/11/21 13:46:01;;;;;;;5.77;3.47;;;8.00;1.00;;;;;;4951476;29;20445;-84
2021/11/21 13:48:50;;;;;;;6.80;4.20;;;8.00;1.00;;;;;;4950300;29;20836;-84
2021/11/21 13:51:38;;;;;;;5.27;3.10;;;8.00;1.00;;;;;;4931943;29;20445;-83
2021/11/21 13:54:30;;;;;;;6.07;3.23;;;8.00;1.00;;;;;;4946909;29;20951;-84
2021/11/21 13:57:20;;;;;;;12.40;5.63;;;8.00;1.00;;;;;;4952323;28;20779;-85
2021/11/21 14:00:14;;;;;;;13.00;6.90;;;8.10;1.00;;;;;;4940063;29;20437;-85
2021/11/21 14:03:04;;;;;;;8.90;4.60;;;8.10;1.00;;;;;;4927013;29;20441;-85